Time;durP1;ratioP1;P1;durP2;ratioP2;P2;SDS_P1;SDS_P2;PMS_P1;PMS_P2;Temp;Humidity;BMP_temperature;BMP_pressure;BME280_temperature;BME280_humidity;BME280_pressure;Samples;Min_cycle;Max_cycle;Signal;HPM_P1;HPM_P2
2023/01/02 00:00:37;;;;;;;7.47;3.08;;;;;;;12.33;100.00;100877.25;5095429;28;20048;-56
2023/01/02 00:03:05;;;;;;;8.48;2.92;;;;;;;12.49;100.00;100864.34;5066569;28;20043;-50
2023/01/02 00:05:33;;;;;;;7.88;2.97;;;;;;;12.47;100.00;100866.53;5091925;28;20066;-50
2023/01/02 00:08:01;;;;;;;7.72;3.20;;;;;;;12.46;100.00;100864.09;5073897;28;20045;-50
2023/01/02 00:10:29;;;;;;;8.00;3.15;;;;;;;12.48;100.00;100870.09;5090695;28;20040;-51
2023/01/02 00:12:56;;;;;;;9.85;3.22;;;;;;;12.45;100.00;100859.72;5094810;28;20100;-50
2023/01/02 00:15:24;;;;;;;7.10;3.45;;;;;;;12.39;100.00;100877.22;5093647;28;20521;-51
2023/01/02 00:17:52;;;;;;;9.45;3.40;;;;;;;12.38;100.00;100873.69;5094553;28;20036;-52
2023/01/02 00:20:20;;;;;;;7.18;2.90;;;;;;;12.46;100.00;100875.84;5094537;28;20048;-51
2023/01/02 00:22:47;;;;;;;7.68;3.10;;;;;;;12.49;100.00;100879.94;5093805;28;20045;-52
2023/01/02 00:25:15;;;;;;;6.05;2.70;;;;;;;12.51;100.00;100872.28;5093566;28;20093;-52
2023/01/02 00:27:42;;;;;;;7.38;3.20;;;;;;;12.57;100.00;100866.50;5080716;28;20161;-50
2023/01/02 00:30:11;;;;;;;11.63;3.60;;;;;;;12.54;100.00;100864.34;5096616;28;20044;-50
2023/01/02 00:32:38;;;;;;;8.32;3.60;;;;;;;12.57;100.00;100862.94;5093392;28;20050;-48
2023/01/02 00:35:06;;;;;;;9.00;3.35;;;;;;;12.56;100.00;100858.59;5094625;28;20139;-53
2023/01/02 00:37:34;;;;;;;11.10;3.30;;;;;;;12.61;100.00;100850.38;5094247;28;20047;-52
2023/01/02 00:40:02;;;;;;;10.85;3.75;;;;;;;12.67;100.00;100843.75;5094434;28;20044;-51
2023/01/02 00:42:30;;;;;;;7.68;3.25;;;;;;;12.67;100.00;100843.75;5094540;28;20040;-52
2023/01/02 00:44:58;;;;;;;6.55;3.00;;;;;;;12.65;100.00;100845.97;5094159;28;20059;-51
2023/01/02 00:47:26;;;;;;;8.55;3.17;;;;;;;12.62;100.00;100846.53;5093772;28;20418;-49
2023/01/02 00:49:53;;;;;;;8.15;3.67;;;;;;;12.62;100.00;100846.53;5093855;28;20498;-53
2023/01/02 00:52:21;;;;;;;5.80;2.78;;;;;;;12.61;100.00;100844.91;5080910;28;20036;-49
2023/01/02 00:54:48;;;;;;;10.98;3.33;;;;;;;12.60;100.00;100840.50;5094447;28;20044;-51
2023/01/02 00:57:16;;;;;;;5.35;2.60;;;;;;;12.56;100.00;100839.47;5093967;28;20405;-52
2023/01/02 00:59:44;;;;;;;8.20;3.40;;;;;;;12.64;100.00;100838.88;5094127;28;20043;-53
2023/01/02 01:02:11;;;;;;;10.10;3.38;;;;;;;12.68;100.00;100826.28;5090489;28;20036;-54
2023/01/02 01:04:39;;;;;;;5.38;2.63;;;;;;;12.68;100.00;100831.75;5082829;28;20051;-51
2023/01/02 01:07:07;;;;;;;8.35;3.22;;;;;;;12.67;100.00;100832.81;5092713;28;20132;-49
2023/01/02 01:09:34;;;;;;;9.20;3.05;;;;;;;12.70;100.00;100825.97;5093870;28;20043;-53
2023/01/02 01:12:02;;;;;;;9.60;3.45;;;;;;;12.64;100.00;100832.59;5094252;28;20048;-51
2023/01/02 01:14:31;;;;;;;9.20;3.42;;;;;;;12.62;100.00;100819.19;5095692;28;20054;-49
2023/01/02 01:16:59;;;;;;;10.93;3.20;;;;;;;12.65;100.00;100815.91;5094639;28;20036;-51
2023/01/02 01:19:31;;;;;;;7.72;3.15;;;;;;;12.68;100.00;100812.59;5093006;28;20044;-51
2023/01/02 01:21:59;;;;;;;9.07;3.33;;;;;;;12.76;100.00;100822.13;5093635;28;20097;-53
2023/01/02 01:24:27;;;;;;;10.02;3.20;;;;;;;12.77;100.00;100816.38;5056010;28;20119;-50
2023/01/02 01:26:55;;;;;;;7.30;2.97;;;;;;;12.75;100.00;100815.03;5085611;28;20048;-54
2023/01/02 01:29:22;;;;;;;10.10;3.45;;;;;;;12.78;100.00;100812.53;5086898;28;20444;-52
2023/01/02 01:31:50;;;;;;;7.75;3.10;;;;;;;12.74;100.00;100816.94;5093528;28;20036;-52
2023/01/02 01:34:18;;;;;;;10.18;3.72;;;;;;;12.83;100.00;100819.09;5092357;28;20098;-52
2023/01/02 01:36:45;;;;;;;10.27;3.38;;;;;;;12.82;100.00;100822.91;5092054;28;20068;-55
2023/01/02 01:39:13;;;;;;;6.95;3.15;;;;;;;12.82;100.00;100822.91;5093507;28;20039;-48
2023/01/02 01:41:41;;;;;;;6.90;3.00;;;;;;;12.74;100.00;100825.13;5093229;28;20028;-53
2023/01/02 01:44:46;;;;;;;11.10;3.40;;;;;;;12.78;100.00;100823.47;5093469;28;20036;-52
2023/01/02 01:47:16;;;;;;;5.10;2.85;;;;;;;12.75;100.00;100828.72;5079546;28;20075;-55
2023/01/02 01:49:44;;;;;;;11.85;3.83;;;;;;;12.73;100.00;100836.38;5093216;28;20032;-52
2023/01/02 01:52:15;;;;;;;8.75;3.05;;;;;;;12.72;100.00;100826.50;5091819;28;20089;-51
2023/01/02 01:54:54;;;;;;;6.72;2.97;;;;;;;12.82;100.00;100822.91;5092461;28;20040;-55
2023/01/02 01:57:27;;;;;;;6.82;3.05;;;;;;;12.86;100.00;100832.19;5092890;28;20115;-55
2023/01/02 01:59:56;;;;;;;8.75;3.42;;;;;;;12.84;100.00;100837.91;5093285;28;20047;-51
2023/01/02 02:02:26;;;;;;;9.65;3.20;;;;;;;12.77;100.00;100841.00;5091860;28;20040;-50
2023/01/02 02:04:55;;;;;;;8.63;3.10;;;;;;;12.82;100.00;100834.69;5091778;28;20043;-52
2023/01/02 02:07:23;;;;;;;7.30;3.10;;;;;;;12.88;100.00;100838.19;5092938;28;20379;-49
2023/01/02 02:09:55;;;;;;;7.15;2.88;;;;;;;12.86;100.00;100832.19;5093282;28;20032;-52
2023/01/02 02:12:23;;;;;;;5.63;2.28;;;;;;;12.87;100.00;100834.66;5091584;28;20491;-50
2023/01/02 02:14:54;;;;;;;8.48;3.05;;;;;;;12.89;100.00;100839.81;5092542;28;20048;-52
2023/01/02 02:17:47;;;;;;;9.15;3.08;;;;;;;12.91;100.00;100835.69;5092253;28;20093;-50
2023/01/02 02:20:21;;;;;;;9.32;3.30;;;;;;;12.85;100.00;100841.50;5091154;28;20051;-52
2023/01/02 02:23:23;;;;;;;7.90;3.13;;;;;;;12.84;100.00;100829.72;5091484;28;20123;-52
2023/01/02 02:26:06;;;;;;;9.75;2.97;;;;;;;12.86;100.00;100833.00;5091352;28;20036;-52
2023/01/02 02:28:42;;;;;;;6.35;2.72;;;;;;;12.84;100.00;100837.13;5079509;28;20044;-54
2023/01/02 02:31:17;;;;;;;8.07;3.20;;;;;;;12.82;100.00;100839.31;5091529;28;20048;-50
2023/01/02 02:34:19;;;;;;;7.40;2.97;;;;;;;12.74;100.00;100836.06;5093042;28;20520;-53
2023/01/02 02:36:53;;;;;;;9.50;3.00;;;;;;;12.75;100.00;100836.91;5085250;28;20074;-52
2023/01/02 02:39:25;;;;;;;6.35;2.90;;;;;;;12.79;100.00;100837.97;5097229;28;20044;-49
2023/01/02 02:42:05;;;;;;;7.85;3.22;;;;;;;12.78;100.00;100836.34;5095831;28;20093;-50
2023/01/02 02:44:57;;;;;;;8.07;3.15;;;;;;;12.78;100.00;100833.59;5095503;28;20402;-47
2023/01/02 02:47:37;;;;;;;5.72;2.83;;;;;;;12.78;100.00;100839.88;5088494;28;20056;-51
2023/01/02 02:50:40;;;;;;;8.52;3.13;;;;;;;12.73;100.00;100841.84;5100925;28;20048;-48
2023/01/02 02:53:21;;;;;;;10.50;3.30;;;;;;;12.74;100.00;100838.81;5088646;28;20174;-51
2023/01/02 02:55:54;;;;;;;9.90;3.28;;;;;;;12.79;100.00;100830.59;5091650;28;20040;-49
2023/01/02 02:58:24;;;;;;;4.63;2.50;;;;;;;12.75;100.00;100829.50;5094773;28;20093;-48
2023/01/02 03:01:05;;;;;;;11.70;3.58;;;;;;;12.71;100.00;100836.63;5094870;28;20039;-50
2023/01/02 03:03:33;;;;;;;9.70;3.40;;;;;;;12.69;100.00;100830.63;5096187;28;20116;-51
2023/01/02 03:06:15;;;;;;;8.70;3.10;;;;;;;12.66;100.00;100833.13;5095893;28;20064;-51
2023/01/02 03:09:12;;;;;;;9.07;2.95;;;;;;;12.75;100.00;100828.72;5096053;28;20044;-51
2023/01/02 03:11:47;;;;;;;6.25;2.88;;;;;;;12.81;100.00;100821.28;5096393;28;20040;-50
2023/01/02 03:14:23;;;;;;;9.15;3.13;;;;;;;12.75;100.00;100824.06;5096073;28;20550;-52
2023/01/02 03:16:59;;;;;;;7.85;2.55;;;;;;;12.79;100.00;100819.66;5095029;28;20047;-52
2023/01/02 03:19:36;;;;;;;7.15;3.05;;;;;;;12.85;100.00;100822.34;5096308;28;20482;-51
2023/01/02 03:22:08;;;;;;;7.30;2.70;;;;;;;12.88;100.00;100830.00;5094986;28;20068;-50
2023/01/02 03:24:37;;;;;;;6.82;3.05;;;;;;;12.95;100.00;100825.03;5088250;28;20044;-51
2023/01/02 03:27:11;;;;;;;6.10;2.60;;;;;;;12.96;100.00;100826.63;5094852;28;20074;-49
2023/01/02 03:29:42;;;;;;;7.65;2.85;;;;;;;12.96;100.00;100826.63;5111776;28;20044;-51
2023/01/02 03:32:21;;;;;;;10.32;3.05;;;;;;;12.87;100.00;100825.59;5095878;28;20040;-51
2023/01/02 03:34:50;;;;;;;7.57;2.75;;;;;;;12.83;100.00;100830.03;5094361;28;20083;-52
2023/01/02 03:37:25;;;;;;;12.00;3.70;;;;;;;12.92;100.00;100818.19;5095583;28;20047;-52
2023/01/02 03:39:56;;;;;;;7.07;2.55;;;;;;;12.87;100.00;100820.97;5094586;28;20047;-53
2023/01/02 03:42:46;;;;;;;6.45;2.80;;;;;;;12.86;100.00;100835.72;5095838;28;20055;-51
2023/01/02 03:45:23;;;;;;;16.27;3.85;;;;;;;12.84;100.00;100834.38;5071934;28;20041;-50
2023/01/02 03:47:56;;;;;;;9.20;3.10;;;;;;;12.82;100.00;100831.09;5075775;28;20051;-49
2023/01/02 03:50:36;;;;;;;3.22;2.15;;;;;;;12.87;100.00;100839.28;5077361;28;20040;-50
2023/01/02 03:53:03;;;;;;;9.65;3.03;;;;;;;12.84;100.00;100837.13;5101804;28;20067;-50
2023/01/02 03:55:33;;;;;;;11.27;3.20;;;;;;;12.71;100.00;100847.56;5084741;28;20041;-49
2023/01/02 03:58:18;;;;;;;10.25;3.30;;;;;;;12.67;100.00;100835.56;5092110;28;20048;-53
2023/01/02 04:00:52;;;;;;;9.15;2.78;;;;;;;12.63;100.00;100842.72;5095730;28;20522;-50
2023/01/02 04:03:30;;;;;;;8.70;2.95;;;;;;;12.74;100.00;100844.28;5089597;28;20044;-51
2023/01/02 04:06:04;;;;;;;11.55;3.67;;;;;;;12.72;100.00;100848.38;5098336;28;20384;-51
2023/01/02 04:08:54;;;;;;;8.02;3.22;;;;;;;12.67;100.00;100851.97;5085720;28;20032;-51
2023/01/02 04:11:23;;;;;;;7.43;2.72;;;;;;;12.85;100.00;100850.50;5094273;28;20089;-51
2023/01/02 04:13:55;;;;;;;9.93;3.15;;;;;;;12.84;100.00;100848.84;5093578;28;20131;-50
2023/01/02 04:16:26;;;;;;;6.75;2.78;;;;;;;12.76;100.00;100846.72;5077100;28;20058;-52
2023/01/02 04:19:06;;;;;;;5.85;2.58;;;;;;;12.74;100.00;100849.75;5110847;28;20040;-50
2023/01/02 04:21:36;;;;;;;10.23;3.08;;;;;;;12.86;100.00;100856.78;5100676;28;20114;-50
2023/01/02 04:24:18;;;;;;;10.18;3.25;;;;;;;12.77;100.00;100854.66;5095097;28;20406;-49
2023/01/02 04:27:06;;;;;;;8.18;2.92;;;;;;;12.77;100.00;100851.94;5093471;28;20036;-52
2023/01/02 04:29:34;;;;;;;5.72;2.33;;;;;;;12.86;100.00;100851.31;5094721;28;20070;-51
2023/01/02 04:32:10;;;;;;;4.38;2.13;;;;;;;12.90;100.00;100863.34;5093733;28;20044;-51
2023/01/02 04:34:38;;;;;;;6.10;2.30;;;;;;;12.90;100.00;100846.94;5093012;28;20043;-50
2023/01/02 04:37:06;;;;;;;6.38;2.80;;;;;;;12.91;100.00;100865.78;5093789;28;20048;-54
2023/01/02 04:39:34;;;;;;;5.75;2.17;;;;;;;12.96;100.00;100864.94;5094893;28;20089;-53
2023/01/02 04:42:02;;;;;;;10.07;3.08;;;;;;;12.95;100.00;100871.50;5076453;28;20059;-52
2023/01/02 04:44:30;;;;;;;7.85;3.00;;;;;;;12.83;100.00;100871.84;5094477;28;20047;-52
2023/01/02 04:46:57;;;;;;;9.38;3.40;;;;;;;12.70;100.00;100880.66;5094429;28;20056;-51
2023/01/02 04:49:26;;;;;;;7.97;3.17;;;;;;;12.76;100.00;100879.53;5094649;28;20406;-51
2023/01/02 04:51:53;;;;;;;8.57;3.13;;;;;;;12.72;100.00;100879.31;5094121;28;20043;-51
2023/01/02 04:54:21;;;;;;;7.78;2.53;;;;;;;12.75;100.00;100884.19;5091426;28;20044;-53
2023/01/02 04:56:48;;;;;;;7.07;2.88;;;;;;;12.69;100.00;100877.09;5083205;28;20085;-51
2023/01/02 04:59:16;;;;;;;7.13;2.60;;;;;;;12.66;100.00;100885.88;5093587;28;20059;-53
2023/01/02 05:01:43;;;;;;;6.57;2.92;;;;;;;12.64;100.00;100887.25;5092391;28;20040;-50
2023/01/02 05:04:12;;;;;;;7.88;2.70;;;;;;;12.65;100.00;100876.06;5090834;28;20044;-51
2023/01/02 05:06:40;;;;;;;8.43;2.55;;;;;;;12.71;100.00;100888.59;5091245;28;20486;-54
2023/01/02 05:09:08;;;;;;;13.60;3.17;;;;;;;12.66;100.00;100891.34;5093363;28;20047;-52
2023/01/02 05:11:35;;;;;;;5.95;2.13;;;;;;;12.70;100.00;100897.06;5092709;28;20036;-52
2023/01/02 05:14:03;;;;;;;9.18;3.60;;;;;;;12.72;100.00;100897.59;5093401;28;20052;-53
2023/01/02 05:16:34;;;;;;;4.90;2.30;;;;;;;12.69;100.00;100890.78;5093986;28;20032;-51
2023/01/02 05:19:01;;;;;;;10.82;3.78;;;;;;;12.79;100.00;100904.41;5093392;28;20066;-54
2023/01/02 05:24:15;;;;;;;5.60;2.55;;;;;;;12.84;100.00;100902.75;5094048;28;20101;-53
2023/01/02 05:26:43;;;;;;;9.80;2.75;;;;;;;12.84;100.00;100909.03;5075221;28;20502;-53
2023/01/02 05:29:11;;;;;;;5.85;2.38;;;;;;;12.78;100.00;100900.03;5093768;28;20051;-51
2023/01/02 05:31:38;;;;;;;6.55;2.60;;;;;;;12.75;100.00;100905.25;5091798;28;20533;-52
2023/01/02 05:34:06;;;;;;;9.82;2.80;;;;;;;12.70;100.00;100903.38;5093748;28;20067;-54
2023/01/02 05:36:33;;;;;;;11.02;3.20;;;;;;;12.69;100.00;100909.91;5093775;28;20044;-52
2023/01/02 05:39:01;;;;;;;9.10;2.78;;;;;;;12.67;100.00;100905.81;5093584;28;20040;-50
2023/01/02 05:41:29;;;;;;;8.98;2.97;;;;;;;12.65;100.00;100905.28;5093830;28;20127;-50
2023/01/02 05:43:56;;;;;;;6.22;2.38;;;;;;;12.71;100.00;100915.91;5093074;28;20044;-50
2023/01/02 05:46:24;;;;;;;9.05;2.92;;;;;;;12.68;100.00;100915.69;5093251;28;20044;-52
2023/01/02 05:48:52;;;;;;;10.63;3.00;;;;;;;12.79;100.00;100930.91;5093585;28;20039;-52
2023/01/02 05:51:19;;;;;;;8.88;2.88;;;;;;;12.70;100.00;100927.97;5093495;28;20067;-48
2023/01/02 05:53:47;;;;;;;8.73;2.97;;;;;;;12.67;100.00;100930.44;5095730;28;20074;-48
2023/01/02 05:56:16;;;;;;;8.70;2.90;;;;;;;12.78;100.00;100932.84;5087504;28;20028;-49
2023/01/02 05:58:46;;;;;;;6.57;2.65;;;;;;;12.73;100.00;100932.88;5094479;28;20410;-53
2023/01/02 06:01:19;;;;;;;7.00;3.03;;;;;;;12.70;100.00;100927.97;5093241;28;20039;-50
2023/01/02 06:03:49;;;;;;;13.10;3.60;;;;;;;12.67;100.00;100939.44;5091817;28;20627;-51
2023/01/02 06:06:19;;;;;;;12.88;3.17;;;;;;;12.54;100.00;100935.41;5074585;28;20063;-51
2023/01/02 06:08:46;;;;;;;17.73;3.42;;;;;;;12.45;100.00;100944.44;5091433;28;20058;-52
2023/01/02 06:11:14;;;;;;;11.98;3.13;;;;;;;12.40;100.00;100939.81;5091605;28;20065;-52
2023/01/02 06:13:42;;;;;;;9.07;3.17;;;;;;;12.36;100.00;100942.28;5093011;28;20044;-51
2023/01/02 06:16:10;;;;;;;7.00;2.67;;;;;;;12.43;100.00;100941.16;5091888;28;20050;-53
2023/01/02 06:18:39;;;;;;;5.07;2.60;;;;;;;12.50;100.00;100937.03;5075417;28;20498;-52
2023/01/02 06:21:09;;;;;;;11.27;2.60;;;;;;;12.62;100.00;100934.00;5091210;28;20048;-51
2023/01/02 06:23:37;;;;;;;9.85;2.55;;;;;;;12.85;100.00;100948.16;5091708;28;20502;-54
2023/01/02 06:26:07;;;;;;;7.72;2.47;;;;;;;12.78;100.00;100949.25;4387658;28;10000619;-54
2023/01/02 06:28:34;;;;;;;9.27;2.95;;;;;;;12.68;100.00;100965.69;5090017;28;20047;-51
2023/01/02 06:31:04;;;;;;;6.43;2.40;;;;;;;12.68;100.00;100965.69;5090138;28;20044;-53
2023/01/02 06:33:32;;;;;;;9.02;2.33;;;;;;;12.60;100.00;100957.25;5089081;28;20097;-55
2023/01/02 06:36:23;;;;;;;9.23;2.78;;;;;;;12.60;100.00;100995.50;5088496;28;20036;-56
2023/01/02 06:38:51;;;;;;;11.43;2.80;;;;;;;12.47;100.00;101037.91;5087816;28;20044;-51
2023/01/02 06:41:19;;;;;;;12.00;3.30;;;;;;;12.25;100.00;101058.13;5088124;28;20048;-51
2023/01/02 06:43:48;;;;;;;8.20;2.50;;;;;;;12.05;100.00;101056.22;5089383;28;20044;-50
2023/01/02 06:46:17;;;;;;;3.95;1.13;;;;;;;11.84;100.00;101060.81;5087657;28;20801;-51
2023/01/02 06:48:46;;;;;;;1.30;0.75;;;;;;;11.63;100.00;101064.59;5089496;28;20040;-49
2023/01/02 06:51:19;;;;;;;1.15;0.90;;;;;;;11.59;100.00;101068.94;5088910;28;20097;-50
2023/01/02 06:53:47;;;;;;;1.08;0.77;;;;;;;11.55;100.00;101079.56;5089365;28;20051;-49
2023/01/02 06:56:16;;;;;;;1.98;1.10;;;;;;;11.53;100.00;101092.66;5073608;28;20036;-50
2023/01/02 06:58:44;;;;;;;1.45;0.88;;;;;;;11.45;100.00;101099.47;5088747;28;20565;-49
2023/01/02 07:01:23;;;;;;;2.53;0.80;;;;;;;11.39;100.00;101102.44;5074019;28;20040;-51
2023/01/02 07:03:51;;;;;;;0.60;0.60;;;;;;;11.26;100.00;101110.03;5089140;28;20487;-52
2023/01/02 07:06:20;;;;;;;2.85;0.77;;;;;;;11.24;100.00;101111.38;5088891;28;20123;-50
2023/01/02 07:08:48;;;;;;;0.90;0.82;;;;;;;11.22;100.00;101119.00;5091804;28;20109;-53
2023/01/02 07:11:17;;;;;;;0.93;0.70;;;;;;;11.15;100.00;101130.13;5089295;28;20040;-53
2023/01/02 07:13:46;;;;;;;0.80;0.80;;;;;;;11.14;100.00;101136.69;5095137;28;20051;-55
2023/01/02 07:16:16;;;;;;;0.90;0.90;;;;;;;11.12;100.00;101129.84;5091634;28;20073;-54
2023/01/02 07:18:44;;;;;;;1.02;0.90;;;;;;;11.14;100.00;101154.97;5077784;28;20055;-51
2023/01/02 07:21:12;;;;;;;3.05;1.20;;;;;;;11.07;100.00;101158.72;5092317;28;20143;-52
2023/01/02 07:23:41;;;;;;;1.40;1.00;;;;;;;11.00;100.00;101163.59;5095583;28;20032;-51
2023/01/02 07:26:09;;;;;;;1.20;1.20;;;;;;;11.01;100.00;101167.94;5095908;28;20109;-52
2023/01/02 07:28:38;;;;;;;2.50;1.00;;;;;;;11.01;100.00;101173.41;5096140;28;20110;-51
2023/01/02 07:31:09;;;;;;;2.08;1.52;;;;;;;10.99;100.00;101181.03;5098018;28;20409;-51
2023/01/02 07:33:37;;;;;;;1.20;1.20;;;;;;;11.02;100.00;101194.16;5095670;28;20044;-50
2023/01/02 07:36:07;;;;;;;1.30;1.25;;;;;;;11.08;100.00;101200.44;5078142;28;20047;-49
2023/01/02 07:38:37;;;;;;;1.85;1.50;;;;;;;11.12;100.00;101203.50;5095477;28;20064;-54
2023/01/02 07:41:16;;;;;;;1.67;1.30;;;;;;;11.16;100.00;101210.03;5095858;28;20559;-51
2023/01/02 07:43:44;;;;;;;2.72;1.60;;;;;;;11.21;100.00;101223.75;5091398;28;20609;-52
2023/01/02 07:46:14;;;;;;;2.47;1.95;;;;;;;11.24;100.00;101220.47;5088993;28;20043;-51
2023/01/02 07:48:42;;;;;;;2.15;1.95;;;;;;;11.24;100.00;101225.94;5089928;28;20036;-51
2023/01/02 07:51:10;;;;;;;2.45;2.25;;;;;;;11.18;100.00;101226.97;5094408;28;20046;-51
2023/01/02 07:53:38;;;;;;;2.70;2.30;;;;;;;11.16;100.00;101231.84;5094628;28;20047;-49
2023/01/02 07:56:07;;;;;;;3.03;2.30;;;;;;;11.16;100.00;101238.16;5080072;28;20500;-50
2023/01/02 07:58:35;;;;;;;2.13;2.03;;;;;;;11.11;100.00;101253.63;5095005;28;20445;-49
2023/01/02 08:01:11;;;;;;;2.30;2.10;;;;;;;11.11;100.00;101259.09;5095400;28;20045;-48
2023/01/02 08:03:39;;;;;;;2.60;2.40;;;;;;;11.07;100.00;101264.25;5095382;28;20463;-48
2023/01/02 08:06:12;;;;;;;3.85;2.45;;;;;;;11.08;100.00;101277.63;5093870;28;20533;-48
2023/01/02 08:08:40;;;;;;;2.70;2.38;;;;;;;11.09;100.00;101276.56;5094238;28;20058;-50
2023/01/02 08:11:20;;;;;;;2.63;2.42;;;;;;;11.08;100.00;101274.88;5094531;28;20041;-48
2023/01/02 08:13:48;;;;;;;3.05;2.72;;;;;;;11.09;100.00;101287.47;5094933;28;20047;-47
2023/01/02 08:16:18;;;;;;;3.10;2.80;;;;;;;11.11;100.00;101291.81;5077071;28;20047;-48
2023/01/02 08:18:46;;;;;;;3.63;3.15;;;;;;;11.13;100.00;101306.03;5094061;28;20132;-47
2023/01/02 08:21:14;;;;;;;3.92;2.80;;;;;;;11.12;100.00;101309.84;5093268;28;20040;-48
2023/01/02 08:23:42;;;;;;;3.38;2.83;;;;;;;11.15;100.00;101312.88;5092289;28;20036;-48
2023/01/02 08:26:11;;;;;;;3.00;2.60;;;;;;;11.14;100.00;101315.88;5094166;28;20055;-48
2023/01/02 08:28:40;;;;;;;4.07;3.08;;;;;;;11.12;100.00;101323.47;5093470;28;20051;-48
2023/01/02 08:31:20;;;;;;;5.63;3.28;;;;;;;11.09;100.00;101322.91;5094796;28;20051;-49
2023/01/02 08:33:48;;;;;;;13.68;5.07;;;;;;;11.05;100.00;101335.41;5094557;28;20036;-48
2023/01/02 08:36:18;;;;;;;3.90;3.42;;;;;;;10.95;100.00;101340.78;5094540;28;20098;-49
2023/01/02 08:38:45;;;;;;;3.85;3.33;;;;;;;10.92;100.00;101332.28;5091979;28;20101;-46
2023/01/02 08:41:14;;;;;;;3.67;3.13;;;;;;;10.90;100.00;101345.38;5092668;28;20036;-47
2023/01/02 08:43:41;;;;;;;4.55;3.10;;;;;;;10.79;100.00;101345.25;5094404;28;20510;-49
2023/01/02 08:46:09;;;;;;;3.30;3.00;;;;;;;10.82;100.00;101349.34;5094218;28;20044;-48
2023/01/02 08:48:37;;;;;;;4.00;3.00;;;;;;;10.86;100.00;101351.31;5092079;28;20058;-50
2023/01/02 08:51:05;;;;;;;3.13;2.80;;;;;;;10.84;100.00;101358.91;5093912;28;20052;-48
2023/01/02 08:53:33;;;;;;;4.15;2.90;;;;;;;10.87;100.00;101369.34;5093780;28;20044;-47
2023/01/02 08:56:23;;;;;;;3.67;3.10;;;;;;;10.87;100.00;101363.88;5093640;28;20055;-50
2023/01/02 08:59:11;;;;;;;5.78;3.72;;;;;;;10.87;100.00;101374.78;5094418;28;20047;-49
2023/01/02 09:01:38;;;;;;;3.10;2.80;;;;;;;10.79;100.00;101377.13;5094358;28;20032;-51
2023/01/02 09:04:07;;;;;;;4.47;2.88;;;;;;;10.77;100.00;101391.00;5095579;28;20101;-50
2023/01/02 09:06:40;;;;;;;3.08;2.70;;;;;;;10.74;100.00;101399.69;5094361;28;20047;-47
2023/01/02 09:09:08;;;;;;;4.07;2.85;;;;;;;10.63;100.00;101398.78;5093870;28;20063;-47
2023/01/02 09:11:49;;;;;;;5.07;2.70;;;;;;;10.60;100.00;101393.81;5093919;28;20090;-49
2023/01/02 09:14:21;;;;;;;3.00;2.42;;;;;;;10.63;100.00;101398.78;5091798;28;20082;-49
2023/01/02 09:16:49;;;;;;;4.47;2.90;;;;;;;10.62;100.00;101409.91;5094062;28;20060;-47
2023/01/02 09:19:17;;;;;;;3.53;2.40;;;;;;;10.65;100.00;101404.78;5092737;28;20044;-49
2023/01/02 09:21:45;;;;;;;5.85;3.03;;;;;;;10.72;100.00;101415.47;5093781;28;20040;-50
2023/01/02 09:24:13;;;;;;;3.78;2.67;;;;;;;10.73;100.00;101421.78;5093621;28;20051;-51
2023/01/02 09:26:41;;;;;;;3.67;2.42;;;;;;;10.77;100.00;101422.91;5092598;28;20047;-47
2023/01/02 09:29:10;;;;;;;4.53;2.72;;;;;;;10.77;100.00;101436.53;5093649;28;20046;-50
2023/01/02 09:31:39;;;;;;;3.20;2.35;;;;;;;10.75;100.00;101446.84;5092439;28;20036;-50
2023/01/02 09:34:07;;;;;;;5.45;2.92;;;;;;;10.71;100.00;101449.28;5093606;28;20044;-51
2023/01/02 09:36:35;;;;;;;10.55;3.30;;;;;;;10.75;100.00;101457.75;5093694;28;20040;-49
2023/01/02 09:39:03;;;;;;;4.38;2.58;;;;;;;10.70;100.00;101455.78;5092997;28;20044;-49
2023/01/02 09:41:47;;;;;;;9.27;2.95;;;;;;;10.72;100.00;101459.09;5093671;28;20353;-49
2023/01/02 09:44:25;;;;;;;9.23;3.45;;;;;;;10.78;100.00;101469.00;5080318;28;20040;-46
2023/01/02 09:46:52;;;;;;;6.20;3.05;;;;;;;10.80;100.00;101476.91;5092992;28;20059;-50
2023/01/02 09:49:24;;;;;;;4.15;2.50;;;;;;;10.71;100.00;101471.09;5093474;28;20164;-50
2023/01/02 09:51:52;;;;;;;5.05;2.78;;;;;;;10.66;100.00;101485.47;5091575;28;20052;-51
2023/01/02 09:54:19;;;;;;;5.50;2.90;;;;;;;10.69;100.00;101480.59;5090294;28;20036;-50
2023/01/02 09:57:08;;;;;;;7.88;3.47;;;;;;;10.76;100.00;101486.69;5081625;28;20068;-51
2023/01/02 09:59:43;;;;;;;5.43;2.80;;;;;;;10.83;100.00;101484.59;5092964;28;20058;-51
2023/01/02 10:02:22;;;;;;;4.93;2.55;;;;;;;10.88;100.00;101490.09;5088530;28;20444;-52
2023/01/02 10:05:15;;;;;;;7.82;3.17;;;;;;;10.90;100.00;101476.22;5091707;28;20040;-50
2023/01/02 10:07:48;;;;;;;8.00;2.72;;;;;;;10.90;100.00;101485.22;5091401;28;20062;-50
2023/01/02 10:10:26;;;;;;;6.00;3.00;;;;;;;10.88;100.00;101480.00;5091683;28;20032;-50
2023/01/02 10:12:56;;;;;;;7.18;3.00;;;;;;;10.86;100.00;101476.72;5092759;28;20040;-48
2023/01/02 10:15:27;;;;;;;7.55;3.15;;;;;;;10.84;100.00;101491.69;5093214;28;20044;-49
2023/01/02 10:17:59;;;;;;;8.88;3.63;;;;;;;10.83;100.00;101498.22;5091970;28;20055;-49
2023/01/02 10:20:32;;;;;;;9.10;3.30;;;;;;;10.83;100.00;101499.03;5067276;28;20410;-50
2023/01/02 10:23:04;;;;;;;9.50;3.13;;;;;;;10.84;100.00;101497.94;5088764;28;20520;-51
2023/01/02 10:25:41;;;;;;;7.45;3.17;;;;;;;10.78;100.00;101498.97;5091788;28;20549;-50
2023/01/02 10:28:27;;;;;;;6.45;3.00;;;;;;;10.79;100.00;101500.59;5091690;28;20036;-49
2023/01/02 10:31:01;;;;;;;6.05;2.80;;;;;;;10.84;100.00;101494.41;5092067;28;20051;-49
2023/01/02 10:33:55;;;;;;;9.82;2.90;;;;;;;10.81;100.00;101489.47;5091385;28;20064;-50
2023/01/02 10:36:25;;;;;;;7.47;2.75;;;;;;;10.83;100.00;101488.13;5093132;28;20047;-50
2023/01/02 10:39:17;;;;;;;6.95;3.00;;;;;;;10.86;100.00;101494.97;5093156;28;20055;-49
2023/01/02 10:41:48;;;;;;;6.60;2.53;;;;;;;10.85;100.00;101501.53;5067906;28;20059;-52
2023/01/02 10:44:21;;;;;;;4.55;2.40;;;;;;;10.86;100.00;101508.59;5092950;28;20040;-50
2023/01/02 10:46:48;;;;;;;8.45;3.65;;;;;;;10.86;100.00;101508.59;5091369;28;20062;-51
2023/01/02 10:49:17;;;;;;;8.40;2.92;;;;;;;10.83;100.00;101515.41;5092547;28;20043;-50
2023/01/02 10:51:57;;;;;;;9.55;3.20;;;;;;;10.84;100.00;101519.75;5091060;28;20036;-50
2023/01/02 10:54:24;;;;;;;9.07;3.13;;;;;;;10.88;100.00;101522.81;5088220;28;20082;-51
2023/01/02 10:56:53;;;;;;;5.22;2.70;;;;;;;10.81;100.00;101527.63;5084223;28;20047;-49
2023/01/02 10:59:27;;;;;;;6.13;2.78;;;;;;;10.79;100.00;101513.41;5096499;28;20098;-50
2023/01/02 11:01:58;;;;;;;5.70;3.03;;;;;;;10.81;100.00;101522.19;5112053;28;20036;-51
2023/01/02 11:04:28;;;;;;;8.13;3.60;;;;;;;10.81;100.00;101523.00;5096166;28;20051;-51
2023/01/02 11:06:56;;;;;;;8.10;3.33;;;;;;;10.82;100.00;101518.38;5095212;28;20040;-54
2023/01/02 11:09:29;;;;;;;7.40;3.35;;;;;;;10.81;100.00;101523.00;5094862;28;20032;-47
2023/01/02 11:12:09;;;;;;;11.45;3.75;;;;;;;10.75;100.00;101529.47;5094534;28;20455;-47
2023/01/02 11:14:37;;;;;;;6.82;3.25;;;;;;;10.73;100.00;101534.34;5091937;28;20047;-45
2023/01/02 11:17:06;;;;;;;6.85;3.38;;;;;;;10.65;100.00;101541.06;5090092;28;20040;-49
2023/01/02 11:19:44;;;;;;;6.20;3.40;;;;;;;10.68;100.00;101552.50;5089792;28;20379;-48
2023/01/02 11:22:14;;;;;;;8.73;3.90;;;;;;;10.65;100.00;101548.38;5094750;28;20490;-50
2023/01/02 11:24:54;;;;;;;10.88;4.60;;;;;;;10.58;100.00;101551.31;5093685;28;20036;-50
2023/01/02 11:27:43;;;;;;;10.15;5.00;;;;;;;10.55;100.00;101551.78;5094813;28;20040;-52
2023/01/02 11:30:43;;;;;;;9.50;4.65;;;;;;;10.52;100.00;101557.75;5093544;28;20039;-49
2023/01/02 11:33:13;;;;;;;8.18;4.50;;;;;;;10.50;100.00;101554.44;5074188;28;20143;-50
2023/01/02 11:35:46;;;;;;;7.78;4.72;;;;;;;10.47;100.00;101554.13;5095809;28;20036;-52
2023/01/02 11:38:27;;;;;;;8.50;4.60;;;;;;;10.50;100.00;101559.88;5095523;28;20056;-49
2023/01/02 11:40:58;;;;;;;8.80;4.95;;;;;;;10.53;100.00;101564.84;5106523;28;20498;-51